TFM - Tactical Decision Aid (Experimental) INFO Settings
ID: Runway Winds: CIG/VIS Threshold: METAR Board: Map:

KCHA - Chattanooga-Lovell Field

Updated at: 2302 UTC 20 Feb 2018
Latest TAF at: 1720 UTC 20 Feb 2018

TAF Board

Time2253Z21/00Z21/01Z21/02Z21/03Z21/04Z21/05Z21/06Z21/07Z21/08Z21/09Z21/10Z21/11Z21/12Z
TypeOBSPRVLPRVLPRVLPRVLPRVLPRVLPRVLPRVLPRVLPRVLPRVLPRVLPRVL
VIS10>6>6>6>6>6>6>6>6>6>6>6>6>6
CIG8050505020202020202020202020
CoverBKNOVCOVCOVCOVCOVCOVCOVCOVCOVCOVCOVCOVCOVC
FltCatVFRVFRVFRVFRMVFRMVFRMVFRMVFRMVFRMVFRMVFRMVFRMVFRMVFR
WX--------------VCSHVCSHVCSHVCSHVCSHVCSHVCSH
WDir140160160160180180180180180180180180180180
WSpd87776665555555
WGst----------------------------
TAF
KCHA 201720Z 2018/2118 18007KT P6SM SCT015 BKN035
  FM202200 16007KT P6SM OVC050
  FM210300 18006KT P6SM OVC020
  FM210600 18005KT P6SM VCSH OVC020


METAR
KCHA 202253Z 14008KT 10SM FEW039 BKN080 23/16 A3028 RMK AO2 SLP249 T02280156
KCHA 202153Z 15008KT 10SM SCT038 BKN049 BKN060 23/16 A3026 RMK AO2 SLP243 T02330156

TAF/METAR Board Legend

Potential Impact
  None Marginal Slight Moderate High
Visibility (sm) >5 3≤X≤5 2≤X<3 0.5≤X<2 <0.5
Ceiling (100 ft) >30 10≤X≤30 7≤X<10 2≤X<7 <2
Wind Speed (kt) <10 10≤X<20 20≤X<30 ≥30
Wind Gust (kt) <15 15≤X<25 25≤X<35 ≥35
Weather No Wx Reported VCTS -TS,-FZRA TS,FZRA +TS,+FZRA





Page loaded:  23:02 UTC  |   03:02 PM Pacific  |   04:02 PM Mountain  |   05:02 PM Central  |   06:02 PM Eastern